createdAt,value
2019-01-29T00:00:49.513Z,2.1
2019-01-29T00:01:51.073Z,2.1
2019-01-29T00:02:52.698Z,2.0
2019-01-29T00:03:54.302Z,2.1
2019-01-29T00:04:55.889Z,2.0
2019-01-29T00:05:57.480Z,2.1
2019-01-29T00:06:58.964Z,2.1
2019-01-29T00:08:00.499Z,2.2
2019-01-29T00:09:01.969Z,2.2
2019-01-29T00:10:03.483Z,2.0
2019-01-29T00:11:05.120Z,2.1
2019-01-29T00:12:06.672Z,2.1
2019-01-29T00:13:08.278Z,2.2
2019-01-29T00:14:09.764Z,2.2
2019-01-29T00:15:11.232Z,2.2
2019-01-29T00:16:12.756Z,2.2
2019-01-29T00:17:14.260Z,2.1
2019-01-29T00:18:15.775Z,2.1
2019-01-29T00:19:17.277Z,2.1
2019-01-29T00:20:18.999Z,2.2
2019-01-29T00:21:20.480Z,2.1
2019-01-29T00:22:22.033Z,2.2
2019-01-29T00:23:23.527Z,2.2
2019-01-29T00:24:25.208Z,2.1
2019-01-29T00:25:26.615Z,2.2
2019-01-29T00:26:28.163Z,2.2
2019-01-29T00:27:29.850Z,2.2
2019-01-29T00:28:31.297Z,2.2
2019-01-29T00:29:32.751Z,2.1
2019-01-29T00:30:34.307Z,2.1
2019-01-29T00:31:35.735Z,2.2
2019-01-29T00:32:37.298Z,2.1
2019-01-29T00:33:38.739Z,2.1
2019-01-29T00:34:40.239Z,2.2
2019-01-29T00:35:41.738Z,2.2
2019-01-29T00:36:43.304Z,2.2
2019-01-29T00:37:44.766Z,2.2
2019-01-29T00:38:46.240Z,2.2
2019-01-29T00:39:47.671Z,2.1
2019-01-29T00:40:49.134Z,2.1
2019-01-29T00:41:50.575Z,2.2
2019-01-29T00:42:52.137Z,2.2
2019-01-29T00:43:53.580Z,2.2
2019-01-29T00:44:55.063Z,2.2
2019-01-29T00:45:56.523Z,2.2
2019-01-29T00:46:57.954Z,2.2
2019-01-29T00:47:59.435Z,2.2
2019-01-29T00:49:00.835Z,2.2
2019-01-29T00:50:02.222Z,2.2
2019-01-29T00:51:03.673Z,2.2
2019-01-29T00:52:05.158Z,2.1
2019-01-29T00:53:06.694Z,2.1
2019-01-29T00:54:08.113Z,2.2
2019-01-29T00:55:09.553Z,2.2
2019-01-29T00:56:11.013Z,2.2
2019-01-29T00:57:12.423Z,2.2
2019-01-29T00:58:13.835Z,2.1
2019-01-29T00:59:15.303Z,2.3
2019-01-29T01:00:16.731Z,2.1
2019-01-29T01:01:18.149Z,2.2
2019-01-29T01:02:19.546Z,2.2
2019-01-29T01:03:21.004Z,2.2
2019-01-29T01:04:22.459Z,2.2
2019-01-29T01:05:23.908Z,2.2
2019-01-29T01:06:25.293Z,2.1
2019-01-29T01:07:26.746Z,2.1
2019-01-29T01:08:28.368Z,2.1
2019-01-29T01:09:29.798Z,2.2
2019-01-29T01:10:31.210Z,2.1
2019-01-29T01:11:32.611Z,2.1
2019-01-29T01:12:34.119Z,2.2
2019-01-29T01:13:35.580Z,2.1
2019-01-29T01:14:37.033Z,2.1
2019-01-29T01:15:38.524Z,2.2
2019-01-29T01:16:40.010Z,2.2
2019-01-29T01:17:41.445Z,2.2
2019-01-29T01:18:42.969Z,2.1
2019-01-29T01:19:44.368Z,2.1
2019-01-29T01:20:57.364Z,2.1
2019-01-29T01:21:58.844Z,2.1
2019-01-29T01:23:00.334Z,2.1
2019-01-29T01:24:01.876Z,2.2
2019-01-29T01:25:03.465Z,2.1
2019-01-29T01:26:05.040Z,2.1
2019-01-29T01:27:06.549Z,2.0
2019-01-29T01:28:07.996Z,2.1
2019-01-29T01:29:09.499Z,2.1
2019-01-29T01:30:10.921Z,2.0
2019-01-29T01:31:12.339Z,2.2
2019-01-29T01:32:13.824Z,2.0
2019-01-29T01:33:15.233Z,2.1
2019-01-29T01:34:16.721Z,2.0
2019-01-29T01:35:18.109Z,2.2
2019-01-29T01:36:19.539Z,2.2
2019-01-29T01:37:20.998Z,2.1
2019-01-29T01:38:22.403Z,2.1
2019-01-29T01:39:23.824Z,2.1
2019-01-29T01:40:25.249Z,2.2
2019-01-29T01:41:26.720Z,2.1
2019-01-29T01:42:28.141Z,2.1
2019-01-29T01:43:29.594Z,2.1
2019-01-29T01:44:31.031Z,2.1
2019-01-29T01:45:32.473Z,2.1
2019-01-29T01:46:33.949Z,2.1
2019-01-29T01:47:35.394Z,2.1
2019-01-29T01:48:36.814Z,2.1
2019-01-29T01:49:38.254Z,2.0
2019-01-29T01:50:39.801Z,2.0
2019-01-29T01:51:41.251Z,2.1
2019-01-29T01:52:42.764Z,2.0
2019-01-29T01:53:44.189Z,2.0
2019-01-29T01:54:45.650Z,2.0
2019-01-29T01:55:47.101Z,2.1
2019-01-29T01:56:48.586Z,2.0
2019-01-29T01:57:49.967Z,2.1
2019-01-29T01:58:51.486Z,2.1
2019-01-29T01:59:52.882Z,2.0
2019-01-29T02:00:54.299Z,2.0
2019-01-29T02:01:55.711Z,2.1
2019-01-29T02:02:57.165Z,2.0
2019-01-29T02:03:58.630Z,2.1
2019-01-29T02:05:39.805Z,2.1
2019-01-29T02:06:41.155Z,2.1
2019-01-29T02:07:42.541Z,2.0
2019-01-29T02:08:43.917Z,2.1
2019-01-29T02:09:45.269Z,2.0
2019-01-29T02:10:46.637Z,1.9
2019-01-29T02:11:47.980Z,2.0
2019-01-29T02:12:49.337Z,2.0
2019-01-29T02:13:50.695Z,2.0
2019-01-29T02:14:52.041Z,2.0
2019-01-29T02:15:53.396Z,2.0
2019-01-29T02:16:54.751Z,2.0
2019-01-29T02:17:56.095Z,2.0
2019-01-29T02:18:57.449Z,2.0
2019-01-29T02:19:58.789Z,2.0
2019-01-29T02:21:00.151Z,2.0
2019-01-29T02:22:01.505Z,1.9
2019-01-29T02:23:07.792Z,2.0
2019-01-29T02:24:04.181Z,2.0
2019-01-29T02:25:05.521Z,2.0
2019-01-29T02:26:06.892Z,2.0
2019-01-29T02:27:08.236Z,2.0
2019-01-29T02:28:09.569Z,2.0
2019-01-29T02:29:10.920Z,2.0
2019-01-29T02:30:12.285Z,2.0
2019-01-29T02:31:13.651Z,2.0
2019-01-29T02:32:15.007Z,2.0
2019-01-29T02:33:16.362Z,1.9
2019-01-29T02:34:17.704Z,2.0
2019-01-29T02:35:19.045Z,2.0
2019-01-29T02:36:20.397Z,2.0
2019-01-29T02:37:21.751Z,2.0
2019-01-29T02:38:23.091Z,2.0
2019-01-29T02:39:24.459Z,2.0
2019-01-29T02:40:25.808Z,2.0
2019-01-29T02:41:27.150Z,2.0
2019-01-29T02:42:28.495Z,2.0
2019-01-29T02:43:29.843Z,2.0
2019-01-29T02:44:31.200Z,2.0
2019-01-29T02:45:32.552Z,2.0
2019-01-29T02:46:33.901Z,2.1
2019-01-29T02:47:35.243Z,2.0
2019-01-29T02:48:36.597Z,2.0
2019-01-29T02:49:38.010Z,1.9
2019-01-29T02:50:39.369Z,2.0
2019-01-29T02:51:40.742Z,2.0
2019-01-29T02:52:42.117Z,2.1
2019-01-29T02:53:43.592Z,2.1
2019-01-29T02:54:44.951Z,2.1
2019-01-29T02:55:46.316Z,2.1
2019-01-29T02:56:47.786Z,2.1
2019-01-29T02:57:49.220Z,2.1
2019-01-29T02:58:50.591Z,2.1
2019-01-29T02:59:51.977Z,2.2
2019-01-29T03:00:53.353Z,2.1
2019-01-29T03:01:54.711Z,2.1
2019-01-29T03:02:56.098Z,2.0
2019-01-29T03:03:57.495Z,2.2
2019-01-29T03:04:58.873Z,2.1
2019-01-29T03:06:00.292Z,2.1
2019-01-29T03:07:01.660Z,2.1
2019-01-29T03:08:03.042Z,2.3
2019-01-29T03:09:04.447Z,2.1
2019-01-29T03:10:05.752Z,2.1
2019-01-29T03:11:07.111Z,2.1
2019-01-29T03:12:08.457Z,2.1
2019-01-29T03:13:09.807Z,2.1
2019-01-29T03:14:11.161Z,2.2
2019-01-29T03:15:12.517Z,2.2
2019-01-29T03:16:13.860Z,2.1
2019-01-29T03:17:15.213Z,2.2
2019-01-29T03:18:16.573Z,2.1
2019-01-29T03:19:17.922Z,2.1
2019-01-29T03:20:19.263Z,2.2
2019-01-29T03:21:20.616Z,2.2
2019-01-29T03:22:21.958Z,2.2
2019-01-29T03:23:27.524Z,2.1
2019-01-29T03:24:24.621Z,2.1
2019-01-29T03:25:25.975Z,2.1
2019-01-29T03:26:27.316Z,2.1
2019-01-29T03:27:28.658Z,2.0
2019-01-29T03:28:29.998Z,2.1
2019-01-29T03:29:31.362Z,2.1
2019-01-29T03:30:32.722Z,2.1
2019-01-29T03:31:34.098Z,2.1
2019-01-29T03:32:35.450Z,2.1
2019-01-29T03:33:36.802Z,2.1
2019-01-29T03:34:38.157Z,2.0
2019-01-29T03:35:39.501Z,2.1
2019-01-29T03:36:40.864Z,2.1
2019-01-29T03:37:42.209Z,2.1
2019-01-29T03:38:43.557Z,2.1
2019-01-29T03:39:44.912Z,2.1
2019-01-29T03:40:46.288Z,2.2
2019-01-29T03:41:47.642Z,2.1
2019-01-29T03:42:49.093Z,2.1
2019-01-29T03:43:50.445Z,2.0
2019-01-29T03:44:51.807Z,2.1
2019-01-29T03:45:53.147Z,2.1
2019-01-29T03:46:54.500Z,2.1
2019-01-29T03:47:55.840Z,2.2
2019-01-29T03:48:57.183Z,2.1
2019-01-29T03:49:58.535Z,2.1
2019-01-29T03:50:59.878Z,2.0
2019-01-29T03:52:01.223Z,2.1
2019-01-29T03:53:02.574Z,2.0
2019-01-29T03:54:03.923Z,2.1
2019-01-29T03:55:05.272Z,2.2
2019-01-29T03:56:06.616Z,2.2
2019-01-29T03:57:07.993Z,2.1
2019-01-29T03:58:09.366Z,2.1
2019-01-29T03:59:10.733Z,2.2
2019-01-29T04:00:12.147Z,2.1
2019-01-29T04:01:13.600Z,2.1
2019-01-29T04:02:15.057Z,2.3
2019-01-29T04:03:16.393Z,2.2
2019-01-29T04:04:17.792Z,2.2
2019-01-29T04:05:19.144Z,2.2
2019-01-29T04:06:20.490Z,2.1
2019-01-29T04:07:21.835Z,2.1
2019-01-29T04:08:23.189Z,2.1
2019-01-29T04:09:24.572Z,2.1
2019-01-29T04:10:25.917Z,2.1
2019-01-29T04:11:27.262Z,2.2
2019-01-29T04:12:28.602Z,2.1
2019-01-29T04:13:29.957Z,2.1
2019-01-29T04:14:31.303Z,2.1
2019-01-29T04:15:32.646Z,2.0
2019-01-29T04:16:33.999Z,2.0
2019-01-29T04:17:35.338Z,2.1
2019-01-29T04:18:36.687Z,2.0
2019-01-29T04:19:38.028Z,2.1
2019-01-29T04:20:39.376Z,2.1
2019-01-29T04:21:40.732Z,2.0
2019-01-29T04:22:42.094Z,2.0
2019-01-29T04:23:47.821Z,2.1
2019-01-29T04:24:44.738Z,2.1
2019-01-29T04:25:46.087Z,2.0
2019-01-29T04:26:47.437Z,2.0
2019-01-29T04:27:48.813Z,2.0
2019-01-29T04:28:50.152Z,2.1
2019-01-29T04:29:51.518Z,2.1
2019-01-29T04:30:52.878Z,2.0
2019-01-29T04:31:54.233Z,2.1
2019-01-29T04:32:55.598Z,2.1
2019-01-29T04:33:56.958Z,2.1
2019-01-29T04:34:58.291Z,2.1
2019-01-29T04:35:59.650Z,2.1
2019-01-29T04:37:01.001Z,2.1
2019-01-29T04:38:02.378Z,2.1
2019-01-29T04:39:03.741Z,2.2
2019-01-29T04:40:05.099Z,2.1
2019-01-29T04:41:06.459Z,2.2
2019-01-29T04:42:07.818Z,2.1
2019-01-29T04:43:09.193Z,2.0
2019-01-29T04:44:10.558Z,2.0
2019-01-29T04:45:11.918Z,2.1
2019-01-29T04:46:13.281Z,2.1
2019-01-29T04:47:14.646Z,2.0
2019-01-29T04:48:15.998Z,2.0
2019-01-29T04:49:17.352Z,2.0
2019-01-29T04:50:18.708Z,2.0
2019-01-29T04:51:20.053Z,2.0
2019-01-29T04:52:21.485Z,2.1
2019-01-29T04:53:22.918Z,2.0
2019-01-29T04:54:24.313Z,2.1
2019-01-29T04:55:25.751Z,2.0
2019-01-29T04:56:27.184Z,2.1
2019-01-29T04:57:28.584Z,2.0
2019-01-29T04:58:29.986Z,2.0
2019-01-29T04:59:31.387Z,2.0
2019-01-29T05:00:32.761Z,2.1
2019-01-29T05:01:34.148Z,1.9
2019-01-29T05:02:35.545Z,2.0
2019-01-29T05:03:36.889Z,2.1
2019-01-29T05:04:38.305Z,2.0
2019-01-29T05:05:39.734Z,1.9
2019-01-29T05:06:41.067Z,2.0
2019-01-29T05:07:42.457Z,2.0
2019-01-29T05:08:43.884Z,2.0
2019-01-29T05:09:45.318Z,2.0
2019-01-29T05:10:46.717Z,2.0
2019-01-29T05:11:48.148Z,2.0
2019-01-29T05:12:49.515Z,2.0
2019-01-29T05:13:50.931Z,1.9
2019-01-29T05:14:52.287Z,2.0
2019-01-29T05:15:53.681Z,2.0
2019-01-29T05:16:55.027Z,2.0
2019-01-29T05:17:56.383Z,2.0
2019-01-29T05:18:57.760Z,1.9
2019-01-29T05:19:59.097Z,2.0
2019-01-29T05:21:00.450Z,2.0
2019-01-29T05:22:01.804Z,2.0
2019-01-29T05:23:03.184Z,2.0
2019-01-29T05:24:06.773Z,2.0
2019-01-29T05:25:05.863Z,1.9
2019-01-29T05:26:07.208Z,1.9
2019-01-29T05:27:08.550Z,1.9
2019-01-29T05:28:09.910Z,2.0
2019-01-29T05:29:11.263Z,1.9
2019-01-29T05:30:12.634Z,1.9
2019-01-29T05:31:14.009Z,1.9
2019-01-29T05:32:15.821Z,1.9
2019-01-29T05:33:17.228Z,1.9
2019-01-29T05:34:18.578Z,1.9
2019-01-29T05:35:19.938Z,1.8
2019-01-29T05:36:21.329Z,1.9
2019-01-29T05:37:22.777Z,1.9
2019-01-29T05:38:24.143Z,1.9
2019-01-29T05:39:25.527Z,1.8
2019-01-29T05:40:26.917Z,1.9
2019-01-29T05:41:28.307Z,1.8
2019-01-29T05:42:29.717Z,1.8
2019-01-29T05:43:31.078Z,1.8
2019-01-29T05:44:32.472Z,1.8
2019-01-29T05:45:33.857Z,1.8
2019-01-29T05:46:35.218Z,1.8
2019-01-29T05:47:36.602Z,1.9
2019-01-29T05:48:37.983Z,1.8
2019-01-29T05:49:39.372Z,1.8
2019-01-29T05:50:40.751Z,1.8
2019-01-29T05:51:42.129Z,1.8
2019-01-29T05:52:43.513Z,1.8
2019-01-29T05:53:44.920Z,1.8
2019-01-29T05:54:46.307Z,1.8
2019-01-29T05:55:47.710Z,1.8
2019-01-29T05:56:49.098Z,1.8
2019-01-29T05:57:50.495Z,1.8
2019-01-29T05:58:51.865Z,1.8
2019-01-29T05:59:53.245Z,1.8
2019-01-29T06:00:54.609Z,1.8
2019-01-29T06:01:56.034Z,1.8
2019-01-29T06:02:57.455Z,1.8
2019-01-29T06:03:58.837Z,1.8
2019-01-29T06:05:00.186Z,1.8
2019-01-29T06:06:01.545Z,1.9
2019-01-29T06:07:02.921Z,1.8
2019-01-29T06:08:05.221Z,1.8
2019-01-29T06:09:05.702Z,1.8
2019-01-29T06:10:07.119Z,1.8
2019-01-29T06:11:08.579Z,1.8
2019-01-29T06:12:09.974Z,1.8
2019-01-29T06:13:12.098Z,1.8
2019-01-29T06:14:12.670Z,1.8
2019-01-29T06:15:14.106Z,1.8
2019-01-29T06:16:15.526Z,1.8
2019-01-29T06:17:16.923Z,1.8
2019-01-29T06:18:18.325Z,1.8
2019-01-29T06:19:19.695Z,1.8
2019-01-29T06:20:21.100Z,1.9
2019-01-29T06:21:22.507Z,1.8
2019-01-29T06:22:23.885Z,1.9
2019-01-29T06:23:25.238Z,1.9
2019-01-29T06:24:26.579Z,1.8
2019-01-29T06:25:27.926Z,1.8
2019-01-29T06:26:29.308Z,1.9
2019-01-29T06:27:30.655Z,1.9
2019-01-29T06:28:32.018Z,1.8
2019-01-29T06:29:33.360Z,1.9
2019-01-29T06:30:34.713Z,1.9
2019-01-29T06:31:36.041Z,1.8
2019-01-29T06:32:37.391Z,1.9
2019-01-29T06:33:38.732Z,1.8
2019-01-29T06:34:40.088Z,1.9
2019-01-29T06:35:41.453Z,1.9
2019-01-29T06:36:42.801Z,1.9
2019-01-29T06:37:44.187Z,2.0
2019-01-29T06:38:45.570Z,2.0
2019-01-29T06:39:46.979Z,1.9
2019-01-29T06:40:48.450Z,2.0
2019-01-29T06:41:49.880Z,2.0
2019-01-29T06:42:51.379Z,2.0
2019-01-29T06:43:52.655Z,1.9
2019-01-29T06:44:54.085Z,1.9
2019-01-29T06:45:55.561Z,2.0
2019-01-29T06:46:57.018Z,1.9
2019-01-29T06:47:58.479Z,2.0
2019-01-29T06:48:59.924Z,1.9
2019-01-29T06:50:01.400Z,1.9
2019-01-29T06:51:02.799Z,1.9
2019-01-29T06:52:04.300Z,1.9
2019-01-29T06:53:05.772Z,2.0
2019-01-29T06:54:07.234Z,2.0
2019-01-29T06:55:08.700Z,1.9
2019-01-29T06:56:10.134Z,1.9
2019-01-29T06:57:11.505Z,1.9
2019-01-29T06:58:12.931Z,1.9
2019-01-29T06:59:14.346Z,2.0
2019-01-29T07:00:15.786Z,1.9
2019-01-29T07:01:17.199Z,1.9
2019-01-29T07:02:18.726Z,1.9
2019-01-29T07:03:20.194Z,2.0
2019-01-29T07:04:21.666Z,2.0
2019-01-29T07:05:23.126Z,2.0
2019-01-29T07:06:24.571Z,2.0
2019-01-29T07:07:25.988Z,2.0
2019-01-29T07:08:27.415Z,2.1
2019-01-29T07:09:28.895Z,2.1
2019-01-29T07:10:30.323Z,2.1
2019-01-29T07:11:31.812Z,2.0
2019-01-29T07:12:33.306Z,2.1
2019-01-29T07:13:34.789Z,2.1
2019-01-29T07:14:36.227Z,2.1
2019-01-29T07:15:37.640Z,2.1
2019-01-29T07:16:39.115Z,2.2
2019-01-29T07:17:40.584Z,2.1
2019-01-29T07:18:42.055Z,2.1
2019-01-29T07:19:43.462Z,2.0
2019-01-29T07:20:44.875Z,2.2
2019-01-29T07:21:46.381Z,2.1
2019-01-29T07:22:47.841Z,2.1
2019-01-29T07:23:49.261Z,2.0
2019-01-29T07:24:50.711Z,2.1
2019-01-29T07:25:52.191Z,2.1
2019-01-29T07:26:53.628Z,2.1
2019-01-29T07:27:55.131Z,2.1
2019-01-29T07:28:56.476Z,2.0
2019-01-29T07:29:57.851Z,2.1
2019-01-29T07:30:59.299Z,2.0
2019-01-29T07:32:00.821Z,2.0
2019-01-29T07:33:02.314Z,2.1
2019-01-29T07:34:03.755Z,2.0
2019-01-29T07:35:05.216Z,2.1
2019-01-29T07:36:06.697Z,2.1
2019-01-29T07:37:08.217Z,2.1
2019-01-29T07:38:09.645Z,2.1
2019-01-29T07:39:11.054Z,2.1
2019-01-29T07:40:12.596Z,2.2
2019-01-29T07:41:14.035Z,2.1
2019-01-29T07:42:15.457Z,2.1
2019-01-29T07:43:16.879Z,2.1
2019-01-29T07:44:18.386Z,2.1
2019-01-29T07:45:19.844Z,2.2
2019-01-29T07:46:21.286Z,2.2
2019-01-29T07:47:22.661Z,2.1
2019-01-29T07:48:24.048Z,2.0
2019-01-29T07:49:25.522Z,2.1
2019-01-29T07:50:26.974Z,2.0
2019-01-29T07:51:28.410Z,2.1
2019-01-29T07:52:29.875Z,2.2
2019-01-29T07:53:31.299Z,2.2
2019-01-29T07:54:33.467Z,2.2
2019-01-29T07:55:34.141Z,2.3
2019-01-29T07:56:35.625Z,2.2
2019-01-29T07:57:37.035Z,2.1
2019-01-29T07:58:38.467Z,2.3
2019-01-29T07:59:39.917Z,2.2
2019-01-29T08:00:42.209Z,2.2
2019-01-29T08:01:42.837Z,2.2
2019-01-29T08:02:44.257Z,2.2
2019-01-29T08:03:45.852Z,2.2
2019-01-29T08:04:47.381Z,2.2
2019-01-29T08:06:28.238Z,2.2
2019-01-29T08:07:29.585Z,2.2
2019-01-29T08:08:30.935Z,2.2
2019-01-29T08:09:32.280Z,2.2
2019-01-29T08:10:33.628Z,2.1
2019-01-29T08:11:34.973Z,2.2
2019-01-29T08:12:36.332Z,2.2
2019-01-29T08:13:37.736Z,2.2
2019-01-29T08:14:39.071Z,2.2
2019-01-29T08:15:40.420Z,2.1
2019-01-29T08:16:41.771Z,2.2
2019-01-29T08:17:43.120Z,2.2
2019-01-29T08:18:44.460Z,2.2
2019-01-29T08:19:45.807Z,2.2
2019-01-29T08:20:47.163Z,2.2
2019-01-29T08:21:48.506Z,2.3
2019-01-29T08:22:49.873Z,2.2
2019-01-29T08:23:51.226Z,2.2
2019-01-29T08:25:01.214Z,2.2
2019-01-29T08:25:53.899Z,2.2
2019-01-29T08:26:55.241Z,2.2
2019-01-29T08:27:56.596Z,2.3
2019-01-29T08:28:57.947Z,2.3
2019-01-29T08:29:59.302Z,2.3
2019-01-29T08:31:00.645Z,2.3
2019-01-29T08:32:01.996Z,2.3
2019-01-29T08:33:04.265Z,2.3
2019-01-29T08:34:05.618Z,2.3
2019-01-29T08:35:06.968Z,2.3
2019-01-29T08:36:08.319Z,2.3
2019-01-29T08:37:09.671Z,2.3
2019-01-29T08:38:11.017Z,2.3
2019-01-29T08:39:12.380Z,2.3
2019-01-29T08:40:13.743Z,2.2
2019-01-29T08:41:15.091Z,2.4
2019-01-29T08:42:16.557Z,2.4
2019-01-29T08:43:17.936Z,2.4
2019-01-29T08:44:19.286Z,2.3
2019-01-29T08:45:20.642Z,2.4
2019-01-29T08:46:23.367Z,2.4
2019-01-29T08:47:23.372Z,2.4
2019-01-29T08:48:24.741Z,2.3
2019-01-29T08:49:26.087Z,2.4
2019-01-29T08:50:27.441Z,2.4
2019-01-29T08:51:28.793Z,2.4
2019-01-29T08:52:30.146Z,2.4
2019-01-29T08:53:31.498Z,2.5
2019-01-29T08:54:32.878Z,2.4
2019-01-29T08:55:34.255Z,2.4
2019-01-29T08:56:35.600Z,2.4
2019-01-29T08:57:36.958Z,2.4
2019-01-29T08:58:38.307Z,2.4
2019-01-29T08:59:39.653Z,2.3
2019-01-29T09:00:41.006Z,2.4
2019-01-29T09:01:42.362Z,2.4
2019-01-29T09:02:43.755Z,2.4
2019-01-29T09:03:45.112Z,2.3
2019-01-29T09:04:46.456Z,2.3
2019-01-29T09:05:47.808Z,2.4
2019-01-29T09:06:49.162Z,2.3
2019-01-29T09:07:50.517Z,2.4
2019-01-29T09:08:51.869Z,2.4
2019-01-29T09:09:53.261Z,2.4
2019-01-29T09:10:54.611Z,2.4
2019-01-29T09:11:55.957Z,2.5
2019-01-29T09:12:57.331Z,2.4
2019-01-29T09:13:58.673Z,2.4
2019-01-29T09:15:00.027Z,2.4
2019-01-29T09:16:01.383Z,2.4
2019-01-29T09:17:02.737Z,2.4
2019-01-29T09:18:04.088Z,2.5
2019-01-29T09:19:05.438Z,2.4
2019-01-29T09:20:06.822Z,2.5
2019-01-29T09:21:08.171Z,2.4
2019-01-29T09:22:09.530Z,2.4
2019-01-29T09:23:10.888Z,2.5
2019-01-29T09:24:12.237Z,2.4
2019-01-29T09:25:19.579Z,2.4
2019-01-29T09:26:14.911Z,2.4
2019-01-29T09:27:16.261Z,2.4
2019-01-29T09:28:18.611Z,2.4
2019-01-29T09:29:18.923Z,2.5
2019-01-29T09:30:20.281Z,2.5
2019-01-29T09:31:21.628Z,2.5
2019-01-29T09:32:23.037Z,2.5
2019-01-29T09:33:24.398Z,2.6
2019-01-29T09:34:25.978Z,2.7
2019-01-29T09:35:27.338Z,2.6
2019-01-29T09:36:28.689Z,2.6
2019-01-29T09:37:30.049Z,2.7
2019-01-29T09:38:31.402Z,2.7
2019-01-29T09:39:32.749Z,2.6
2019-01-29T09:40:34.106Z,2.7
2019-01-29T09:41:35.462Z,2.6
2019-01-29T09:42:36.818Z,2.8
2019-01-29T09:43:38.161Z,2.8
2019-01-29T09:44:39.517Z,2.8
2019-01-29T09:45:40.874Z,2.7
2019-01-29T09:46:42.234Z,2.8
2019-01-29T09:47:43.604Z,2.9
2019-01-29T09:48:44.954Z,2.9
2019-01-29T09:49:46.300Z,2.9
2019-01-29T09:50:47.666Z,2.9
2019-01-29T09:51:49.015Z,2.9
2019-01-29T09:52:50.389Z,2.9
2019-01-29T09:53:51.741Z,3.0
2019-01-29T09:54:53.106Z,3.0
2019-01-29T09:55:54.494Z,3.0
2019-01-29T09:56:55.844Z,3.0
2019-01-29T09:57:57.198Z,3.1
2019-01-29T09:58:58.568Z,3.1
2019-01-29T09:59:59.922Z,3.1
2019-01-29T10:01:01.282Z,3.2
2019-01-29T10:02:02.633Z,3.3
2019-01-29T10:03:03.981Z,3.4
2019-01-29T10:04:05.339Z,3.3
2019-01-29T10:05:06.688Z,3.4
2019-01-29T10:06:08.050Z,3.4
2019-01-29T10:07:09.434Z,3.5
2019-01-29T10:08:10.820Z,3.5
2019-01-29T10:09:12.164Z,3.5
2019-01-29T10:10:13.552Z,3.4
2019-01-29T10:11:14.909Z,3.4
2019-01-29T10:12:16.265Z,3.5
2019-01-29T10:13:17.623Z,3.4
2019-01-29T10:14:19.022Z,3.5
2019-01-29T10:15:20.380Z,3.5
2019-01-29T10:16:21.736Z,3.5
2019-01-29T10:17:23.085Z,3.5
2019-01-29T10:18:24.443Z,3.6
2019-01-29T10:19:25.818Z,3.6
2019-01-29T10:20:27.180Z,3.6
2019-01-29T10:21:28.579Z,3.6
2019-01-29T10:22:29.934Z,3.6
2019-01-29T10:23:31.293Z,3.6
2019-01-29T10:24:32.643Z,3.5
2019-01-29T10:25:37.926Z,3.6
2019-01-29T10:26:35.322Z,3.6
2019-01-29T10:27:36.672Z,3.5
2019-01-29T10:28:38.042Z,3.8
2019-01-29T10:29:39.440Z,3.8
2019-01-29T10:30:40.808Z,3.9
2019-01-29T10:31:42.158Z,3.8
2019-01-29T10:32:43.509Z,3.9
2019-01-29T10:33:44.868Z,3.9
2019-01-29T10:34:46.237Z,3.8
2019-01-29T10:35:47.594Z,3.9
2019-01-29T10:36:48.979Z,4.0
2019-01-29T10:37:50.338Z,4.0
2019-01-29T10:38:51.693Z,4.0
2019-01-29T10:39:53.045Z,3.9
2019-01-29T10:40:54.404Z,4.0
2019-01-29T10:41:55.763Z,4.1
2019-01-29T10:42:57.134Z,4.1
2019-01-29T10:43:58.493Z,4.0
2019-01-29T10:44:59.843Z,4.0
2019-01-29T10:46:01.203Z,4.1
2019-01-29T10:47:02.562Z,3.9
2019-01-29T10:48:03.930Z,4.0
2019-01-29T10:49:05.351Z,4.1
2019-01-29T10:50:06.640Z,4.1
2019-01-29T10:51:08.025Z,4.1
2019-01-29T10:52:09.374Z,4.1
2019-01-29T10:53:10.732Z,4.2
2019-01-29T10:54:12.106Z,4.2
2019-01-29T10:55:13.510Z,4.3
2019-01-29T10:56:14.878Z,4.4
2019-01-29T10:57:16.235Z,4.5
2019-01-29T10:58:17.593Z,4.5
2019-01-29T10:59:18.952Z,4.6
2019-01-29T11:00:20.311Z,4.7
2019-01-29T11:01:21.674Z,4.6
2019-01-29T11:02:23.033Z,4.6
2019-01-29T11:03:24.396Z,4.6
2019-01-29T11:04:25.755Z,4.6
2019-01-29T11:05:27.156Z,4.7
2019-01-29T11:06:28.556Z,4.7
2019-01-29T11:07:29.909Z,4.7
2019-01-29T11:08:31.269Z,4.7
2019-01-29T11:09:32.640Z,4.6
2019-01-29T11:10:34.001Z,4.8
2019-01-29T11:11:35.449Z,4.8
2019-01-29T11:12:36.810Z,4.6
2019-01-29T11:13:38.159Z,4.8
2019-01-29T11:14:39.521Z,4.7
2019-01-29T11:15:40.869Z,4.6
2019-01-29T11:16:42.248Z,4.6
2019-01-29T11:17:43.658Z,4.6
2019-01-29T11:18:45.025Z,4.6
2019-01-29T11:19:46.380Z,4.4
2019-01-29T11:20:47.748Z,4.4
2019-01-29T11:21:49.115Z,4.4
2019-01-29T11:22:50.488Z,4.3
2019-01-29T11:23:51.850Z,4.4
2019-01-29T11:24:53.210Z,4.5
2019-01-29T11:25:56.060Z,4.5
2019-01-29T11:26:56.189Z,4.5
2019-01-29T11:27:57.784Z,4.6
2019-01-29T11:28:59.165Z,4.6
2019-01-29T11:30:00.530Z,4.7
2019-01-29T11:31:01.904Z,4.6
2019-01-29T11:32:03.269Z,4.6
2019-01-29T11:33:04.657Z,4.5
2019-01-29T11:34:06.013Z,4.5
2019-01-29T11:35:07.400Z,4.7
2019-01-29T11:36:08.756Z,4.6
2019-01-29T11:37:12.014Z,4.5
2019-01-29T11:38:11.436Z,4.6
2019-01-29T11:39:12.805Z,4.5
2019-01-29T11:40:14.198Z,4.6
2019-01-29T11:41:15.555Z,4.7
2019-01-29T11:42:17.008Z,4.7
2019-01-29T11:43:18.366Z,4.8
2019-01-29T11:44:19.718Z,4.8
2019-01-29T11:45:21.079Z,5.0
2019-01-29T11:46:22.438Z,5.0
2019-01-29T11:47:23.831Z,5.0
2019-01-29T11:48:25.210Z,5.1
2019-01-29T11:49:26.605Z,5.1
2019-01-29T11:50:27.978Z,5.2
2019-01-29T11:51:29.390Z,5.3
2019-01-29T11:52:30.789Z,5.3
2019-01-29T11:53:32.163Z,5.2
2019-01-29T11:54:33.615Z,5.1
2019-01-29T11:55:34.988Z,5.1
2019-01-29T11:56:36.360Z,5.2
2019-01-29T11:57:37.740Z,5.2
2019-01-29T11:58:39.164Z,5.1
2019-01-29T11:59:40.535Z,5.1
2019-01-29T12:00:41.915Z,5.0
2019-01-29T12:01:43.302Z,5.0
2019-01-29T12:02:44.656Z,5.0
2019-01-29T12:03:46.019Z,5.1
2019-01-29T12:04:47.376Z,5.1
2019-01-29T12:05:48.725Z,5.3
2019-01-29T12:06:50.149Z,5.3
2019-01-29T12:07:51.508Z,5.5
2019-01-29T12:08:52.861Z,5.5
2019-01-29T12:09:54.281Z,5.7
2019-01-29T12:10:55.651Z,5.9
2019-01-29T12:11:57.018Z,6.0
2019-01-29T12:12:58.437Z,6.0
2019-01-29T12:13:59.844Z,6.1
2019-01-29T12:15:01.235Z,6.2
2019-01-29T12:16:02.645Z,6.3
2019-01-29T12:17:04.086Z,6.4
2019-01-29T12:18:05.585Z,6.5
2019-01-29T12:19:07.035Z,6.5
2019-01-29T12:20:08.402Z,6.5
2019-01-29T12:21:09.784Z,6.6
2019-01-29T12:22:11.180Z,6.7
2019-01-29T12:23:12.610Z,6.9
2019-01-29T12:24:14.047Z,6.9
2019-01-29T12:25:15.439Z,7.0
2019-01-29T12:26:16.846Z,6.8
2019-01-29T12:27:18.243Z,6.6
2019-01-29T12:28:19.680Z,6.4
2019-01-29T12:29:21.076Z,6.2
2019-01-29T12:30:22.500Z,6.0
2019-01-29T12:31:23.917Z,5.9
2019-01-29T12:32:25.310Z,5.9
2019-01-29T12:33:26.689Z,6.0
2019-01-29T12:34:28.157Z,6.1
2019-01-29T12:35:29.590Z,6.3
2019-01-29T12:36:31.031Z,6.4
2019-01-29T12:37:32.464Z,6.5
2019-01-29T12:38:33.874Z,6.7
2019-01-29T12:39:35.311Z,7.0
2019-01-29T12:40:37.111Z,7.0
2019-01-29T12:41:38.098Z,7.0
2019-01-29T12:42:39.555Z,7.0
2019-01-29T12:43:41.046Z,7.1
2019-01-29T12:44:42.457Z,7.1
2019-01-29T12:45:43.845Z,7.0
2019-01-29T12:46:45.266Z,7.0
2019-01-29T12:47:46.671Z,6.8
2019-01-29T12:48:48.031Z,6.7
2019-01-29T12:49:49.400Z,6.6
2019-01-29T12:50:50.787Z,6.5
2019-01-29T12:51:52.171Z,6.4
2019-01-29T12:52:53.548Z,6.4
2019-01-29T12:53:54.921Z,6.5
2019-01-29T12:54:56.342Z,6.5
2019-01-29T12:55:57.769Z,6.6
2019-01-29T12:56:59.133Z,6.6
2019-01-29T12:58:00.498Z,6.7
2019-01-29T12:59:01.871Z,6.7
2019-01-29T13:00:03.260Z,6.6
2019-01-29T13:01:04.657Z,6.5
2019-01-29T13:02:06.036Z,6.4
2019-01-29T13:03:07.414Z,6.5
2019-01-29T13:04:08.791Z,6.5
2019-01-29T13:05:10.216Z,6.4
2019-01-29T13:06:11.644Z,6.3
2019-01-29T13:07:13.013Z,6.2
2019-01-29T13:08:14.452Z,6.1
2019-01-29T13:09:15.860Z,6.0
2019-01-29T13:10:17.248Z,5.9
2019-01-29T13:11:18.667Z,5.9
2019-01-29T13:12:20.047Z,5.7
2019-01-29T13:13:21.466Z,5.6
2019-01-29T13:14:22.916Z,5.6
2019-01-29T13:15:24.281Z,5.5
2019-01-29T13:16:25.698Z,5.5
2019-01-29T13:17:27.155Z,5.4
2019-01-29T13:18:28.562Z,5.4
2019-01-29T13:19:29.946Z,5.3
2019-01-29T13:20:31.347Z,5.3
2019-01-29T13:21:32.762Z,5.3
2019-01-29T13:22:34.186Z,5.2
2019-01-29T13:23:35.568Z,5.2
2019-01-29T13:24:36.927Z,5.0
2019-01-29T13:25:38.302Z,5.1
2019-01-29T13:26:39.749Z,5.1
2019-01-29T13:27:41.137Z,5.0
2019-01-29T13:28:42.502Z,5.0
2019-01-29T13:29:43.875Z,5.1
2019-01-29T13:30:45.283Z,5.1
2019-01-29T13:31:46.642Z,5.2
2019-01-29T13:32:48.012Z,5.2
2019-01-29T13:33:49.402Z,5.1
2019-01-29T13:34:50.813Z,5.1
2019-01-29T13:35:52.196Z,5.1
2019-01-29T13:36:53.597Z,5.1
2019-01-29T13:37:54.962Z,5.1
2019-01-29T13:38:56.310Z,5.1
2019-01-29T13:39:57.703Z,5.1
2019-01-29T13:40:59.082Z,5.1
2019-01-29T13:42:00.476Z,5.2
2019-01-29T13:43:01.858Z,5.1
2019-01-29T13:44:03.238Z,5.1
2019-01-29T13:45:04.631Z,5.2
2019-01-29T13:46:06.006Z,5.1
2019-01-29T13:47:07.373Z,5.2
2019-01-29T13:48:08.752Z,5.3
2019-01-29T13:49:10.094Z,5.5
2019-01-29T13:50:11.473Z,5.6
2019-01-29T13:51:12.881Z,5.7
2019-01-29T13:52:14.271Z,5.7
2019-01-29T13:53:15.659Z,5.7
2019-01-29T13:54:17.011Z,5.7
2019-01-29T13:55:18.401Z,5.6
2019-01-29T13:56:19.766Z,5.6
2019-01-29T13:57:21.157Z,5.4
2019-01-29T13:58:22.522Z,5.3
2019-01-29T13:59:23.937Z,5.2
2019-01-29T14:00:25.306Z,5.1
2019-01-29T14:01:26.656Z,5.1
2019-01-29T14:02:28.031Z,5.1
2019-01-29T14:03:29.401Z,5.2
2019-01-29T14:04:30.775Z,5.1
2019-01-29T14:05:32.425Z,5.1
2019-01-29T14:07:14.392Z,5.1
2019-01-29T14:08:15.747Z,5.1